createdAt,value
2024-01-20T00:01:16.561Z,101633.00
2024-01-20T00:03:43.383Z,101626.00
2024-01-20T00:06:10.528Z,101640.00
2024-01-20T00:08:37.986Z,101632.00
2024-01-20T00:11:04.830Z,101643.00
2024-01-20T00:13:31.530Z,101639.00
2024-01-20T00:16:00.790Z,101642.00
2024-01-20T00:18:27.645Z,101636.00
2024-01-20T00:20:54.384Z,101621.00
2024-01-20T00:23:21.586Z,101631.00
2024-01-20T00:25:48.216Z,101649.00
2024-01-20T00:28:14.943Z,101633.00
2024-01-20T00:30:41.733Z,101636.00
2024-01-20T00:33:10.430Z,101639.00
2024-01-20T00:35:38.131Z,101639.00
2024-01-20T00:38:05.048Z,101647.00
2024-01-20T00:40:31.874Z,101647.00
2024-01-20T00:42:58.874Z,101651.00
2024-01-20T00:45:25.720Z,101649.00
2024-01-20T00:47:52.331Z,101660.00
2024-01-20T00:50:19.007Z,101650.00
2024-01-20T00:52:45.807Z,101653.00
2024-01-20T00:55:13.288Z,101661.00
2024-01-20T00:57:39.865Z,101657.00
2024-01-20T01:00:10.300Z,101657.00
2024-01-20T01:02:39.989Z,101668.00
2024-01-20T01:05:07.262Z,101673.00
2024-01-20T01:07:36.322Z,101681.00
2024-01-20T01:10:08.106Z,101683.00
2024-01-20T01:12:36.002Z,101682.00
2024-01-20T01:15:02.908Z,101692.00
2024-01-20T01:17:34.467Z,101712.00
2024-01-20T01:20:03.721Z,101700.00
2024-01-20T01:22:30.880Z,101707.00
2024-01-20T01:24:57.418Z,101697.00
2024-01-20T01:27:23.999Z,101704.00
2024-01-20T01:29:50.783Z,101710.00
2024-01-20T01:32:17.691Z,101702.00
2024-01-20T01:34:44.366Z,101706.00
2024-01-20T01:37:11.033Z,101719.00
2024-01-20T01:39:38.331Z,101714.00
2024-01-20T01:42:05.121Z,101710.00
2024-01-20T01:44:34.715Z,101712.00
2024-01-20T01:47:01.713Z,101712.00
2024-01-20T01:49:30.775Z,101714.00
2024-01-20T01:51:57.685Z,101718.00
2024-01-20T01:54:25.890Z,101716.00
2024-01-20T01:56:57.669Z,101726.00
2024-01-20T01:59:24.716Z,101721.00
2024-01-20T02:01:52.931Z,101718.00
2024-01-20T02:04:19.650Z,101710.00
2024-01-20T02:06:46.657Z,101702.00
2024-01-20T02:09:14.365Z,101707.00
2024-01-20T02:11:42.428Z,101706.00
2024-01-20T02:14:09.941Z,101716.00
2024-01-20T02:16:36.513Z,101720.00
2024-01-20T02:19:05.259Z,101716.00
2024-01-20T02:21:33.918Z,101722.00
2024-01-20T02:24:01.248Z,101709.00
2024-01-20T02:26:29.444Z,101712.00
2024-01-20T02:28:56.561Z,101714.00
2024-01-20T02:31:23.430Z,101719.00
2024-01-20T02:33:50.148Z,101713.00
2024-01-20T02:36:17.053Z,101733.00
2024-01-20T02:38:43.852Z,101709.00
2024-01-20T02:41:10.859Z,101713.00
2024-01-20T02:43:37.601Z,101707.00
2024-01-20T02:46:04.256Z,101706.00
2024-01-20T02:48:31.450Z,101714.00
2024-01-20T02:50:58.351Z,101701.00
2024-01-20T02:53:26.974Z,101713.00
2024-01-20T02:55:53.560Z,101709.00
2024-01-20T02:58:20.312Z,101708.00
2024-01-20T03:00:47.994Z,101715.00
2024-01-20T03:03:16.207Z,101712.00
2024-01-20T03:05:42.997Z,101723.00
2024-01-20T03:08:09.892Z,101722.00
2024-01-20T03:10:36.949Z,101725.00
2024-01-20T03:13:05.268Z,101722.00
2024-01-20T03:15:31.967Z,101733.00
2024-01-20T03:17:58.709Z,101720.00
2024-01-20T03:20:25.376Z,101726.00
2024-01-20T03:22:52.698Z,101729.00
2024-01-20T03:25:21.643Z,101730.00
2024-01-20T03:27:49.955Z,101725.00
2024-01-20T03:30:17.295Z,101740.00
2024-01-20T03:32:44.033Z,101734.00
2024-01-20T03:35:10.886Z,101741.00
2024-01-20T03:37:37.486Z,101733.00
2024-01-20T03:40:06.843Z,101740.00
2024-01-20T03:42:33.405Z,101734.00
2024-01-20T03:45:01.301Z,101722.00
2024-01-20T03:47:28.446Z,101748.00
2024-01-20T03:49:55.705Z,101740.00
2024-01-20T03:52:22.322Z,101760.00
2024-01-20T03:54:48.942Z,101755.00
2024-01-20T03:57:15.474Z,101763.00
2024-01-20T03:59:42.283Z,101765.00
2024-01-20T04:02:11.005Z,101769.00
2024-01-20T04:04:38.705Z,101766.00
2024-01-20T04:07:07.082Z,101767.00
2024-01-20T04:09:34.676Z,101766.00
2024-01-20T04:12:01.322Z,101767.00
2024-01-20T04:14:28.201Z,101765.00
2024-01-20T04:16:54.932Z,101768.00
2024-01-20T04:19:21.499Z,101772.00
2024-01-20T04:21:48.156Z,101776.00
2024-01-20T04:24:14.770Z,101776.00
2024-01-20T04:26:42.394Z,101776.00
2024-01-20T04:29:08.939Z,101777.00
2024-01-20T04:31:36.316Z,101774.00
2024-01-20T04:34:03.022Z,101777.00
2024-01-20T04:36:29.767Z,101783.00
2024-01-20T04:38:56.387Z,101776.00
2024-01-20T04:41:22.935Z,101783.00
2024-01-20T04:43:49.551Z,101789.00
2024-01-20T04:46:16.677Z,101786.00
2024-01-20T04:48:43.369Z,101789.00
2024-01-20T04:51:10.365Z,101797.00
2024-01-20T04:53:36.999Z,101799.00
2024-01-20T04:56:05.669Z,101799.00
2024-01-20T04:58:32.552Z,101800.00
2024-01-20T05:00:59.336Z,101811.00
2024-01-20T05:03:25.914Z,101806.00
2024-01-20T05:05:54.682Z,101809.00
2024-01-20T05:08:21.493Z,101816.00
2024-01-20T05:10:48.798Z,101821.00
2024-01-20T05:13:15.422Z,101821.00
2024-01-20T05:15:42.094Z,101813.00
2024-01-20T05:18:08.861Z,101820.00
2024-01-20T05:20:35.591Z,101813.00
2024-01-20T05:23:03.969Z,101822.00
2024-01-20T05:25:30.863Z,101822.00
2024-01-20T05:27:58.848Z,101820.00
2024-01-20T05:30:27.904Z,101823.00
2024-01-20T05:32:54.810Z,101823.00
2024-01-20T05:35:21.411Z,101830.00
2024-01-20T05:37:50.087Z,101831.00
2024-01-20T05:40:16.873Z,101824.00
2024-01-20T05:42:45.123Z,101816.00
2024-01-20T05:45:13.022Z,101826.00
2024-01-20T05:47:40.695Z,101823.00
2024-01-20T05:50:08.042Z,101822.00
2024-01-20T05:52:35.587Z,101820.00
2024-01-20T05:55:02.607Z,101822.00
2024-01-20T05:57:29.454Z,101828.00
2024-01-20T05:59:56.097Z,101819.00
2024-01-20T06:02:24.734Z,101826.00
2024-01-20T06:04:51.317Z,101823.00
2024-01-20T06:07:18.337Z,101840.00
2024-01-20T06:09:45.154Z,101833.00
2024-01-20T06:12:13.486Z,101840.00
2024-01-20T06:14:41.296Z,101847.00
2024-01-20T06:17:09.877Z,101841.00
2024-01-20T06:19:37.763Z,101853.00
2024-01-20T06:22:05.850Z,101860.00
2024-01-20T06:24:32.684Z,101855.00
2024-01-20T06:26:59.331Z,101853.00
2024-01-20T06:29:25.903Z,101842.00
2024-01-20T06:31:54.468Z,101846.00
2024-01-20T06:34:21.241Z,101860.00
2024-01-20T06:36:48.102Z,101859.00
2024-01-20T06:39:15.954Z,101878.00
2024-01-20T06:41:46.502Z,101871.00
2024-01-20T06:44:13.282Z,101881.00
2024-01-20T06:46:39.923Z,101876.00
2024-01-20T06:49:06.805Z,101877.00
2024-01-20T06:51:33.753Z,101875.00
2024-01-20T06:54:00.384Z,101887.00
2024-01-20T06:56:29.975Z,101885.00
2024-01-20T06:58:58.843Z,101892.00
2024-01-20T07:01:26.308Z,101885.00
2024-01-20T07:03:53.061Z,101883.00
2024-01-20T07:06:26.194Z,101876.00
2024-01-20T07:08:56.449Z,101877.00
2024-01-20T07:11:25.356Z,101884.00
2024-01-20T07:13:52.182Z,101894.00
2024-01-20T07:16:22.710Z,101893.00
2024-01-20T07:18:53.060Z,101897.00
2024-01-20T07:21:21.215Z,101906.00
2024-01-20T07:23:47.731Z,101908.00
2024-01-20T07:26:14.399Z,101910.00
2024-01-20T07:28:40.995Z,101921.00
2024-01-20T07:31:07.546Z,101918.00
2024-01-20T07:33:35.163Z,101916.00
2024-01-20T07:36:02.183Z,101927.00
2024-01-20T07:38:29.006Z,101914.00
2024-01-20T07:40:56.335Z,101929.00
2024-01-20T07:43:22.880Z,101922.00
2024-01-20T07:45:49.524Z,101928.00
2024-01-20T07:48:18.640Z,101933.00
2024-01-20T07:50:48.724Z,101936.00
2024-01-20T07:53:15.639Z,101935.00
2024-01-20T07:55:42.294Z,101929.00
2024-01-20T07:58:08.887Z,101939.00
2024-01-20T08:00:36.599Z,101939.00
2024-01-20T08:03:03.598Z,101946.00
2024-01-20T08:05:33.661Z,101949.00
2024-01-20T08:08:01.856Z,101943.00
2024-01-20T08:10:28.681Z,101946.00
2024-01-20T08:12:56.603Z,101954.00
2024-01-20T08:15:24.658Z,101948.00
2024-01-20T08:17:51.567Z,101953.00
2024-01-20T08:20:18.191Z,101964.00
2024-01-20T08:22:45.016Z,101958.00
2024-01-20T08:25:11.748Z,101963.00
2024-01-20T08:27:38.439Z,101964.00
2024-01-20T08:30:08.538Z,101970.00
2024-01-20T08:32:39.373Z,101985.00
2024-01-20T08:35:08.350Z,101980.00
2024-01-20T08:37:36.946Z,101984.00
2024-01-20T08:40:03.934Z,101981.00
2024-01-20T08:42:31.590Z,101976.00
2024-01-20T08:44:59.087Z,101990.00
2024-01-20T08:47:25.673Z,101982.00
2024-01-20T08:49:54.814Z,101981.00
2024-01-20T08:52:23.321Z,101987.00
2024-01-20T08:54:51.294Z,101991.00
2024-01-20T08:57:18.296Z,101981.00
2024-01-20T08:59:44.861Z,102002.00
2024-01-20T09:02:11.885Z,101990.00
2024-01-20T09:04:42.032Z,101993.00
2024-01-20T09:07:21.508Z,101986.00
2024-01-20T09:09:50.625Z,102000.00
2024-01-20T09:12:17.510Z,102000.00
2024-01-20T09:14:44.312Z,102001.00
2024-01-20T09:17:11.012Z,102000.00
2024-01-20T09:19:37.858Z,101999.00
2024-01-20T09:22:05.192Z,102009.00
2024-01-20T09:24:32.053Z,102011.00
2024-01-20T09:26:58.621Z,102025.00
2024-01-20T09:29:32.875Z,102011.00
2024-01-20T09:31:59.678Z,102026.00
2024-01-20T09:34:26.771Z,102031.00
2024-01-20T09:36:54.994Z,102020.00
2024-01-20T09:39:21.848Z,102027.00
2024-01-20T09:41:49.154Z,102050.00
2024-01-20T09:44:17.293Z,102027.00
2024-01-20T09:46:44.240Z,102046.00
2024-01-20T09:49:11.081Z,102046.00
2024-01-20T09:51:50.748Z,102032.00
2024-01-20T09:54:21.150Z,102048.00
2024-01-20T09:56:48.554Z,102043.00
2024-01-20T09:59:16.591Z,102035.00
2024-01-20T10:01:44.270Z,102040.00
2024-01-20T10:04:12.146Z,102042.00
2024-01-20T10:06:40.174Z,102030.00
2024-01-20T10:09:06.903Z,102039.00
2024-01-20T10:11:33.492Z,102035.00
2024-01-20T10:14:00.520Z,102042.00
2024-01-20T10:16:27.354Z,102055.00
2024-01-20T10:18:54.547Z,102059.00
2024-01-20T10:21:23.189Z,102055.00
2024-01-20T10:23:49.864Z,102051.00
2024-01-20T10:26:16.733Z,102060.00
2024-01-20T10:28:44.910Z,102047.00
2024-01-20T10:31:12.989Z,102048.00
2024-01-20T10:33:41.070Z,102054.00
2024-01-20T10:36:08.756Z,102056.00
2024-01-20T10:38:42.117Z,102061.00
2024-01-20T10:41:10.130Z,102067.00
2024-01-20T10:43:43.006Z,102069.00
2024-01-20T10:46:32.543Z,102073.00
2024-01-20T10:49:01.704Z,102067.00
2024-01-20T10:51:29.564Z,102083.00
2024-01-20T10:53:57.899Z,102082.00
2024-01-20T10:56:27.696Z,102078.00
2024-01-20T10:59:17.187Z,102082.00
2024-01-20T11:01:46.912Z,102077.00
2024-01-20T11:04:23.721Z,102074.00
2024-01-20T11:06:52.209Z,102079.00
2024-01-20T11:09:23.397Z,102075.00
2024-01-20T11:12:09.926Z,102074.00
2024-01-20T11:14:36.911Z,102061.00
2024-01-20T11:17:14.339Z,102069.00
2024-01-20T11:19:41.280Z,102061.00
2024-01-20T11:22:33.029Z,102060.00
2024-01-20T11:25:05.287Z,102057.00
2024-01-20T11:27:33.491Z,102043.00
2024-01-20T11:30:09.894Z,102048.00
2024-01-20T11:32:36.609Z,102037.00
2024-01-20T11:35:05.749Z,102046.00
2024-01-20T11:37:35.507Z,102051.00
2024-01-20T11:40:12.572Z,102054.00
2024-01-20T11:42:39.655Z,102072.00
2024-01-20T11:45:08.331Z,102036.00
2024-01-20T11:47:35.660Z,102051.00
2024-01-20T11:50:03.359Z,102057.00
2024-01-20T11:52:31.314Z,102029.00
2024-01-20T11:54:58.129Z,102034.00
2024-01-20T11:57:31.466Z,102031.00
2024-01-20T11:59:59.166Z,102034.00
2024-01-20T12:02:26.696Z,102033.00
2024-01-20T12:04:59.714Z,102043.00
2024-01-20T12:07:29.096Z,102035.00
2024-01-20T12:09:55.929Z,102033.00
2024-01-20T12:12:24.137Z,102039.00
2024-01-20T12:14:51.329Z,102036.00
2024-01-20T12:17:23.583Z,102028.00
2024-01-20T12:19:50.593Z,102027.00
2024-01-20T12:22:17.717Z,102043.00
2024-01-20T12:24:48.273Z,102047.00
2024-01-20T12:27:16.195Z,102034.00
2024-01-20T12:29:42.902Z,102039.00
2024-01-20T12:32:09.763Z,102035.00
2024-01-20T12:34:36.303Z,102040.00
2024-01-20T12:37:04.544Z,102057.00
2024-01-20T12:39:32.123Z,102059.00
2024-01-20T12:41:58.696Z,102046.00
2024-01-20T12:44:25.283Z,102057.00
2024-01-20T12:46:55.882Z,102058.00
2024-01-20T12:49:24.728Z,102043.00
2024-01-20T12:51:51.486Z,102047.00
2024-01-20T12:54:18.213Z,102043.00
2024-01-20T12:56:46.095Z,102052.00
2024-01-20T12:59:12.737Z,102054.00
2024-01-20T13:01:39.354Z,102049.00
2024-01-20T13:04:06.014Z,102049.00
2024-01-20T13:06:33.779Z,102045.00
2024-01-20T13:09:02.209Z,102059.00
2024-01-20T13:11:31.028Z,102069.00
2024-01-20T13:14:00.065Z,102053.00
2024-01-20T13:16:26.963Z,102066.00
2024-01-20T13:18:54.462Z,102059.00
2024-01-20T13:21:23.399Z,102061.00
2024-01-20T13:23:51.025Z,102065.00
2024-01-20T13:26:17.932Z,102062.00
2024-01-20T13:28:47.752Z,102071.00
2024-01-20T13:31:20.791Z,102070.00
2024-01-20T13:33:47.776Z,102077.00
2024-01-20T13:36:14.627Z,102080.00
2024-01-20T13:38:41.293Z,102084.00
2024-01-20T13:41:08.044Z,102086.00
2024-01-20T13:43:36.382Z,102113.00
2024-01-20T13:46:04.999Z,102102.00
2024-01-20T13:48:32.248Z,102111.00
2024-01-20T13:50:59.232Z,102114.00
2024-01-20T13:53:28.857Z,102115.00
2024-01-20T13:55:55.396Z,102117.00
2024-01-20T13:58:50.958Z,102111.00
2024-01-20T14:01:22.537Z,102116.00
2024-01-20T14:03:50.084Z,102120.00
2024-01-20T14:06:17.430Z,102117.00
2024-01-20T14:08:44.112Z,102117.00
2024-01-20T14:11:10.794Z,102118.00
2024-01-20T14:13:37.384Z,102116.00
2024-01-20T14:16:04.094Z,102113.00
2024-01-20T14:18:32.295Z,102122.00
2024-01-20T14:21:00.204Z,102119.00
2024-01-20T14:23:27.056Z,102133.00
2024-01-20T14:25:55.443Z,102128.00
2024-01-20T14:28:23.161Z,102125.00
2024-01-20T14:30:49.832Z,102128.00
2024-01-20T14:33:17.423Z,102140.00
2024-01-20T14:35:46.395Z,102137.00
2024-01-20T14:38:14.764Z,102137.00
2024-01-20T14:40:42.070Z,102143.00
2024-01-20T14:43:09.442Z,102157.00
2024-01-20T14:45:35.989Z,102158.00
2024-01-20T14:48:02.886Z,102162.00
2024-01-20T14:50:29.844Z,102153.00
2024-01-20T14:53:13.895Z,102170.00
2024-01-20T14:55:42.342Z,102173.00
2024-01-20T14:58:09.113Z,102175.00
2024-01-20T15:00:39.026Z,102174.00
2024-01-20T15:03:05.929Z,102175.00
2024-01-20T15:05:32.916Z,102175.00
2024-01-20T15:07:59.527Z,102176.00
2024-01-20T15:10:26.162Z,102173.00
2024-01-20T15:12:52.894Z,102184.00
2024-01-20T15:15:19.690Z,102197.00
2024-01-20T15:17:46.345Z,102186.00
2024-01-20T15:20:15.619Z,102193.00
2024-01-20T15:22:43.584Z,102199.00
2024-01-20T15:25:12.252Z,102197.00
2024-01-20T15:27:41.398Z,102210.00
2024-01-20T15:30:11.363Z,102212.00
2024-01-20T15:32:38.329Z,102219.00
2024-01-20T15:35:06.290Z,102233.00
2024-01-20T15:37:36.761Z,102230.00
2024-01-20T15:40:04.017Z,102228.00
2024-01-20T15:42:45.136Z,102233.00
2024-01-20T15:45:14.051Z,102229.00
2024-01-20T15:47:41.674Z,102232.00
2024-01-20T15:50:08.847Z,102233.00
2024-01-20T15:52:36.561Z,102240.00
2024-01-20T15:55:03.618Z,102249.00
2024-01-20T15:57:30.249Z,102250.00
2024-01-20T15:59:58.362Z,102243.00
2024-01-20T16:02:26.092Z,102252.00
2024-01-20T16:04:52.661Z,102253.00
2024-01-20T16:07:19.965Z,102262.00
2024-01-20T16:09:48.091Z,102263.00
2024-01-20T16:12:14.713Z,102267.00
2024-01-20T16:14:41.383Z,102270.00
2024-01-20T16:17:10.601Z,102272.00
2024-01-20T16:19:37.238Z,102274.00
2024-01-20T16:22:04.092Z,102262.00
2024-01-20T16:24:30.961Z,102264.00
2024-01-20T16:26:57.879Z,102277.00
2024-01-20T16:29:24.525Z,102269.00
2024-01-20T16:31:53.060Z,102272.00
2024-01-20T16:34:21.912Z,102274.00
2024-01-20T16:36:50.199Z,102285.00
2024-01-20T16:39:17.613Z,102289.00
2024-01-20T16:41:44.679Z,102292.00
2024-01-20T16:44:11.912Z,102291.00
2024-01-20T16:46:39.989Z,102296.00
2024-01-20T16:49:09.500Z,102303.00
2024-01-20T16:51:36.580Z,102307.00
2024-01-20T16:54:03.418Z,102312.00
2024-01-20T16:56:32.028Z,102314.00
2024-01-20T16:58:58.849Z,102325.00
2024-01-20T17:01:25.498Z,102322.00
2024-01-20T17:03:52.535Z,102322.00
2024-01-20T17:06:21.116Z,102320.00
2024-01-20T17:08:47.873Z,102325.00
2024-01-20T17:11:14.622Z,102326.00
2024-01-20T17:13:45.085Z,102311.00
2024-01-20T17:16:11.772Z,102334.00
2024-01-20T17:18:38.777Z,102336.00
2024-01-20T17:21:05.530Z,102338.00
2024-01-20T17:23:32.185Z,102327.00
2024-01-20T17:25:58.761Z,102342.00
2024-01-20T17:28:25.454Z,102354.00
2024-01-20T17:30:52.284Z,102350.00
2024-01-20T17:33:19.631Z,102355.00
2024-01-20T17:35:46.271Z,102360.00
2024-01-20T17:38:13.084Z,102366.00
2024-01-20T17:40:40.883Z,102372.00
2024-01-20T17:43:07.804Z,102372.00
2024-01-20T17:45:34.422Z,102365.00
2024-01-20T17:48:01.035Z,102378.00
2024-01-20T17:50:31.013Z,102367.00
2024-01-20T17:52:59.062Z,102367.00
2024-01-20T17:55:27.346Z,102365.00
2024-01-20T17:57:55.220Z,102369.00
2024-01-20T18:00:22.037Z,102387.00
2024-01-20T18:02:52.152Z,102381.00
2024-01-20T18:05:19.247Z,102376.00
2024-01-20T18:07:50.572Z,102383.00
2024-01-20T18:10:19.987Z,102390.00
2024-01-20T18:12:46.916Z,102391.00
2024-01-20T18:15:16.268Z,102398.00
2024-01-20T18:20:31.776Z,102401.00
2024-01-20T18:22:59.979Z,102401.00
2024-01-20T18:25:27.174Z,102410.00
2024-01-20T18:27:53.719Z,102419.00
2024-01-20T18:30:20.235Z,102410.00
2024-01-20T18:32:47.387Z,102411.00
2024-01-20T18:35:14.008Z,102414.00
2024-01-20T18:37:43.807Z,102418.00
2024-01-20T18:40:12.752Z,102426.00
2024-01-20T18:42:39.566Z,102426.00
2024-01-20T18:45:06.810Z,102430.00
2024-01-20T18:47:33.454Z,102431.00
2024-01-20T18:50:00.357Z,102433.00
2024-01-20T18:52:27.578Z,102428.00
2024-01-20T18:54:57.312Z,102432.00
2024-01-20T18:57:24.896Z,102416.00
2024-01-20T18:59:51.572Z,102424.00
2024-01-20T19:02:19.219Z,102430.00
2024-01-20T19:04:46.212Z,102431.00
2024-01-20T19:07:13.367Z,102431.00
2024-01-20T19:09:40.483Z,102437.00
2024-01-20T19:14:52.854Z,102440.00
2024-01-20T19:17:27.509Z,102428.00
2024-01-20T19:19:55.241Z,102440.00
2024-01-20T19:22:23.960Z,102438.00
2024-01-20T19:24:59.175Z,102451.00
2024-01-20T19:27:27.418Z,102453.00
2024-01-20T19:29:54.301Z,102462.00
2024-01-20T19:32:25.223Z,102467.00
2024-01-20T19:34:54.224Z,102458.00
2024-01-20T19:37:20.814Z,102459.00
2024-01-20T19:39:47.628Z,102464.00
2024-01-20T19:42:15.830Z,102458.00
2024-01-20T19:44:43.398Z,102459.00
2024-01-20T19:47:10.175Z,102462.00
2024-01-20T19:49:39.062Z,102476.00
2024-01-20T19:52:10.305Z,102453.00
2024-01-20T19:54:37.157Z,102455.00
2024-01-20T19:57:04.681Z,102477.00
2024-01-20T19:59:31.370Z,102472.00
2024-01-20T20:01:58.147Z,102477.00
2024-01-20T20:04:33.784Z,102472.00
2024-01-20T20:07:05.475Z,102488.00
2024-01-20T20:09:35.071Z,102481.00
2024-01-20T20:12:03.116Z,102476.00
2024-01-20T20:14:29.950Z,102482.00
2024-01-20T20:16:57.047Z,102486.00
2024-01-20T20:19:24.991Z,102488.00
2024-01-20T20:21:53.752Z,102486.00
2024-01-20T20:24:20.545Z,102488.00
2024-01-20T20:26:47.457Z,102480.00
2024-01-20T20:29:14.471Z,102477.00
2024-01-20T20:31:41.493Z,102480.00
2024-01-20T20:34:08.790Z,102476.00
2024-01-20T20:36:37.346Z,102470.00
2024-01-20T20:39:04.235Z,102483.00
2024-01-20T20:41:31.334Z,102475.00
2024-01-20T20:43:59.380Z,102481.00
2024-01-20T20:46:27.802Z,102486.00
2024-01-20T20:48:55.974Z,102475.00
2024-01-20T20:51:22.853Z,102492.00
2024-01-20T20:53:49.864Z,102478.00
2024-01-20T20:56:16.429Z,102482.00
2024-01-20T20:58:44.179Z,102495.00
2024-01-20T21:01:13.904Z,102500.00
2024-01-20T21:03:40.662Z,102487.00
2024-01-20T21:06:07.934Z,102500.00
2024-01-20T21:08:36.394Z,102500.00
2024-01-20T21:11:04.154Z,102497.00
2024-01-20T21:13:33.119Z,102489.00
2024-01-20T21:15:59.995Z,102491.00
2024-01-20T21:18:30.798Z,102488.00
2024-01-20T21:20:57.920Z,102483.00
2024-01-20T21:23:28.921Z,102484.00
2024-01-20T21:25:57.182Z,102487.00
2024-01-20T21:28:25.325Z,102481.00
2024-01-20T21:30:55.821Z,102488.00
2024-01-20T21:33:22.741Z,102474.00
2024-01-20T21:35:49.559Z,102494.00
2024-01-20T21:38:16.510Z,102493.00
2024-01-20T21:40:48.721Z,102485.00
2024-01-20T21:43:15.723Z,102486.00
2024-01-20T21:45:44.979Z,102487.00
2024-01-20T21:48:12.948Z,102474.00
2024-01-20T21:50:44.575Z,102479.00
2024-01-20T21:53:16.150Z,102476.00
2024-01-20T21:55:44.952Z,102486.00
2024-01-20T21:58:12.714Z,102478.00
2024-01-20T22:00:40.738Z,102492.00
2024-01-20T22:03:07.867Z,102477.00
2024-01-20T22:05:34.801Z,102463.00
2024-01-20T22:08:01.730Z,102472.00
2024-01-20T22:10:28.689Z,102478.00
2024-01-20T22:12:55.717Z,102482.00
2024-01-20T22:15:22.883Z,102479.00
2024-01-20T22:17:49.521Z,102480.00
2024-01-20T22:20:16.048Z,102488.00
2024-01-20T22:22:43.674Z,102477.00
2024-01-20T22:25:13.468Z,102493.00
2024-01-20T22:27:40.791Z,102492.00
2024-01-20T22:30:10.738Z,102492.00
2024-01-20T22:32:39.532Z,102489.00
2024-01-20T22:35:07.658Z,102480.00
2024-01-20T22:37:34.347Z,102485.00
2024-01-20T22:40:03.350Z,102487.00
2024-01-20T22:42:33.323Z,102484.00
2024-01-20T22:45:08.729Z,102487.00
2024-01-20T22:47:35.292Z,102484.00
2024-01-20T22:50:04.713Z,102485.00
2024-01-20T22:52:31.482Z,102482.00
2024-01-20T22:54:58.494Z,102483.00
2024-01-20T22:57:25.240Z,102479.00
2024-01-20T22:59:51.839Z,102482.00
2024-01-20T23:02:19.459Z,102493.00
2024-01-20T23:04:46.947Z,102484.00
2024-01-20T23:07:13.922Z,102475.00
2024-01-20T23:09:41.984Z,102480.00
2024-01-20T23:12:11.823Z,102490.00
2024-01-20T23:14:39.462Z,102479.00
2024-01-20T23:17:06.358Z,102501.00
2024-01-20T23:19:32.926Z,102487.00
2024-01-20T23:21:59.523Z,102476.00
2024-01-20T23:24:32.129Z,102481.00
2024-01-20T23:26:59.008Z,102473.00
2024-01-20T23:29:26.268Z,102480.00
2024-01-20T23:31:52.967Z,102479.00
2024-01-20T23:34:19.818Z,102473.00
2024-01-20T23:36:47.315Z,102482.00
2024-01-20T23:39:15.181Z,102465.00
2024-01-20T23:41:41.981Z,102476.00
2024-01-20T23:44:08.587Z,102467.00
2024-01-20T23:46:35.157Z,102474.00
2024-01-20T23:49:01.713Z,102477.00
2024-01-20T23:51:32.481Z,102474.00
2024-01-20T23:53:59.016Z,102478.00
2024-01-20T23:56:25.572Z,102462.00
2024-01-20T23:58:52.369Z,102465.00
